Time;durP1;ratioP1;P1;durP2;ratioP2;P2;SDS_P1;SDS_P2;PMS_P1;PMS_P2;Temp;Humidity;BMP_temperature;BMP_pressure;BME280_temperature;BME280_humidity;BME280_pressure;Samples;Min_cycle;Max_cycle;Signal;HPM_P1;HPM_P2
2022/01/24 00:00:26;;;;;;;;;;;1.40;99.90;;;;;;5053804;28;19931;-45
2022/01/24 00:02:52;;;;;;;;;;;1.40;99.90;;;;;;5057530;28;19935;-45
2022/01/24 00:05:17;;;;;;;;;;;1.40;99.90;;;;;;5057145;28;19912;-45
2022/01/24 00:07:43;;;;;;;;;;;1.40;99.90;;;;;;5057348;28;20347;-45
2022/01/24 00:10:14;;;;;;;;;;;1.40;99.90;;;;;;5057283;28;19922;-47
2022/01/24 00:28:10;;;;;;;;;;;1.30;99.90;;;;;;5057269;28;20384;-45
2022/01/24 00:30:35;;;;;;;;;;;1.20;99.90;;;;;;5057475;28;19909;-45
2022/01/24 00:33:01;;;;;;;;;;;1.20;99.90;;;;;;5057059;28;19919;-44
2022/01/24 00:35:26;;;;;;;;;;;1.20;99.90;;;;;;5056919;28;19931;-44
2022/01/24 00:37:52;;;;;;;;;;;1.20;99.90;;;;;;5056630;28;19912;-47
2022/01/24 00:40:18;;;;;;;;;;;1.30;99.90;;;;;;5056920;28;20362;-44
2022/01/24 00:42:52;;;;;;;;;;;1.30;99.90;;;;;;5056566;28;19908;-44
2022/01/24 00:45:30;;;;;;;;;;;1.40;99.90;;;;;;5056545;28;19909;-44
2022/01/24 00:55:53;;;;;;;;;;;1.30;99.90;;;;;;5056412;28;19971;-44
2022/01/24 00:58:18;;;;;;;;;;;1.30;99.90;;;;;;5056575;28;19940;-43
2022/01/24 01:00:44;;;;;;;;;;;1.30;99.90;;;;;;5056377;28;19935;-45
2022/01/24 01:03:09;;;;;;;;;;;1.30;99.90;;;;;;5056454;28;19909;-45
2022/01/24 01:18:57;;;;;;;;;;;1.30;99.90;;;;;;5056294;28;19920;-47
2022/01/24 01:21:23;;;;;;;;;;;1.30;99.90;;;;;;5056048;28;19909;-45
2022/01/24 01:23:52;;;;;;;;;;;1.30;99.90;;;;;;5055932;28;19956;-45
2022/01/24 01:26:42;;;;;;;;;;;1.20;99.90;;;;;;5055678;28;19936;-45
2022/01/24 01:29:19;;;;;;;;;;;1.30;99.90;;;;;;5056357;28;20200;-43
2022/01/24 01:40:04;;;;;;;;;;;1.10;99.90;;;;;;5055811;28;20355;-43
2022/01/24 01:55:50;;;;;;;;;;;1.00;99.90;;;;;;5055481;28;19919;-46
2022/01/24 01:58:17;;;;;;;;;;;1.00;99.90;;;;;;5055143;28;19912;-45
2022/01/24 02:00:48;;;;;;;;;;;0.90;99.90;;;;;;5055402;28;19912;-45
2022/01/24 02:03:14;;;;;;;;;;;0.90;99.90;;;;;;5055149;28;20375;-46
2022/01/24 02:05:40;;;;;;;;;;;0.80;99.90;;;;;;5055314;28;19909;-44
2022/01/24 02:08:05;;;;;;;;;;;0.80;99.90;;;;;;5055221;28;20087;-43
2022/01/24 02:10:36;;;;;;;;;;;0.80;99.90;;;;;;5055176;28;20260;-45
2022/01/24 02:13:02;;;;;;;;;;;0.80;99.90;;;;;;5055044;28;20351;-48
2022/01/24 02:15:43;;;;;;;;;;;0.70;99.90;;;;;;5055012;28;19927;-44
2022/01/24 02:18:29;;;;;;;;;;;0.80;99.90;;;;;;5054887;28;20351;-45
2022/01/24 02:23:51;;;;;;;;;;;0.90;99.90;;;;;;5054409;28;19936;-44
2022/01/24 02:26:19;;;;;;;;;;;0.90;99.90;;;;;;5039611;28;19916;-45
2022/01/24 02:31:46;;;;;;;;;;;1.00;99.90;;;;;;5020753;28;19909;-44
2022/01/24 02:34:33;;;;;;;;;;;0.90;99.90;;;;;;5054826;28;19917;-42
2022/01/24 02:37:03;;;;;;;;;;;0.90;99.90;;;;;;5054605;28;19920;-44
2022/01/24 02:52:59;;;;;;;;;;;0.80;99.90;;;;;;5054493;28;19915;-46
2022/01/24 02:55:25;;;;;;;;;;;0.70;99.90;;;;;;5036385;28;19908;-45
2022/01/24 02:57:50;;;;;;;;;;;0.70;99.90;;;;;;5036476;28;19992;-45
2022/01/24 03:00:16;;;;;;;;;;;0.70;99.90;;;;;;5053993;28;20320;-44
2022/01/24 03:02:41;;;;;;;;;;;0.60;99.90;;;;;;5054211;28;19913;-45
2022/01/24 03:05:07;;;;;;;;;;;0.60;99.90;;;;;;5053851;28;20050;-46
2022/01/24 03:07:33;;;;;;;;;;;0.60;99.90;;;;;;5036378;28;19909;-45
2022/01/24 03:10:01;;;;;;;;;;;0.60;99.90;;;;;;5036311;28;20370;-44
2022/01/24 03:12:58;;;;;;;;;;;0.60;99.90;;;;;;5053869;28;20355;-45
2022/01/24 03:15:12;;;;;;;;;;;0.60;99.90;;;;;;5053422;28;19909;-44
2022/01/24 03:17:38;;;;;;;;;;;0.60;99.90;;;;;;5054327;28;19912;-47
2022/01/24 03:20:04;;;;;;;;;;;0.60;99.90;;;;;;5054009;28;19908;-43
2022/01/24 03:22:30;;;;;;;;;;;0.50;99.90;;;;;;5053889;28;19909;-44
2022/01/24 03:24:55;;;;;;;;;;;0.60;99.90;;;;;;5053311;28;19920;-44
2022/01/24 03:27:21;;;;;;;;;;;0.50;99.90;;;;;;5035201;28;19948;-46
2022/01/24 03:29:46;;;;;;;;;;;0.50;99.90;;;;;;5053059;28;19909;-43
2022/01/24 03:32:12;;;;;;;;;;;0.50;99.90;;;;;;5035218;28;19913;-43
2022/01/24 03:34:37;;;;;;;;;;;0.60;99.90;;;;;;5052521;28;19909;-43
2022/01/24 03:37:03;;;;;;;;;;;0.50;99.90;;;;;;5052035;28;19913;-43
2022/01/24 03:39:28;;;;;;;;;;;0.50;99.90;;;;;;5052718;28;19959;-45
2022/01/24 03:41:54;;;;;;;;;;;0.50;99.90;;;;;;5052874;28;19916;-46
2022/01/24 03:44:20;;;;;;;;;;;0.50;99.90;;;;;;5052868;28;19909;-45
2022/01/24 03:47:29;;;;;;;;;;;0.50;99.90;;;;;;5052901;28;19909;-48
2022/01/24 03:49:46;;;;;;;;;;;0.60;99.90;;;;;;5050078;28;19909;-45
2022/01/24 03:52:12;;;;;;;;;;;0.60;99.90;;;;;;5052761;28;19913;-45
2022/01/24 03:54:38;;;;;;;;;;;0.50;99.90;;;;;;5052450;28;19909;-47
2022/01/24 03:57:04;;;;;;;;;;;0.60;99.90;;;;;;5052667;28;20301;-45
2022/01/24 03:59:32;;;;;;;;;;;0.50;99.90;;;;;;5052372;28;20364;-45
2022/01/24 04:01:58;;;;;;;;;;;0.60;99.90;;;;;;5052618;28;19916;-48
2022/01/24 04:04:24;;;;;;;;;;;0.60;99.90;;;;;;5052640;28;20343;-43
2022/01/24 04:06:49;;;;;;;;;;;0.50;99.90;;;;;;5052677;28;19945;-44
2022/01/24 04:09:15;;;;;;;;;;;0.50;99.90;;;;;;5052584;28;20268;-44
2022/01/24 04:11:41;;;;;;;;;;;0.50;99.90;;;;;;5052801;28;20347;-43
2022/01/24 04:14:28;;;;;;;;;;;0.30;99.90;;;;;;5052448;28;20247;-43
2022/01/24 04:22:07;;;;;;;;;;;0.40;99.90;;;;;;5052407;28;20362;-47
2022/01/24 04:25:38;;;;;;;;;;;0.40;99.90;;;;;;5063240;27;1974614;-44
2022/01/24 04:28:04;;;;;;;;;;;0.40;99.90;;;;;;5132028;28;19961;-43
2022/01/24 04:30:29;;;;;;;;;;;0.40;99.90;;;;;;5132241;28;20389;-46
2022/01/24 04:32:55;;;;;;;;;;;0.30;99.90;;;;;;5113877;28;19907;-44
2022/01/24 04:35:20;;;;;;;;;;;0.30;99.90;;;;;;5131900;28;20296;-45
2022/01/24 04:37:46;;;;;;;;;;;0.30;99.90;;;;;;5131828;28;20315;-44
2022/01/24 04:40:11;;;;;;;;;;;0.30;99.90;;;;;;5131846;28;20118;-45
2022/01/24 04:42:51;;;;;;;;;;;0.30;99.90;;;;;;5132103;28;20415;-44
2022/01/24 04:45:54;;;;;;;;;;;0.30;99.90;;;;;;5131943;28;20010;-45
2022/01/24 04:51:12;;;;;;;;;;;0.40;99.90;;;;;;5131845;28;19914;-48
2022/01/24 04:56:03;;;;;;;;;;;0.30;99.90;;;;;;5131696;28;19907;-45
2022/01/24 04:58:29;;;;;;;;;;;0.30;99.90;;;;;;5131407;28;19943;-45
2022/01/24 05:00:54;;;;;;;;;;;0.30;99.90;;;;;;5131913;28;19912;-45
2022/01/24 05:03:20;;;;;;;;;;;0.20;99.90;;;;;;5117097;28;20441;-43
2022/01/24 05:05:46;;;;;;;;;;;0.20;99.90;;;;;;5110072;28;19950;-46
2022/01/24 05:08:14;;;;;;;;;;;0.20;99.90;;;;;;5110470;28;19908;-43
2022/01/24 05:10:52;;;;;;;;;;;0.20;99.90;;;;;;5110800;28;20011;-50
2022/01/24 05:23:57;;;;;;;;;;;0.10;99.90;;;;;;5110173;28;20338;-46
2022/01/24 05:26:22;;;;;;;;;;;0.20;99.90;;;;;;5110294;28;19908;-50
2022/01/24 05:28:48;;;;;;;;;;;0.20;99.90;;;;;;5110059;28;19908;-46
2022/01/24 05:31:13;;;;;;;;;;;0.10;99.90;;;;;;5117995;28;19956;-45
2022/01/24 05:33:39;;;;;;;;;;;0.10;99.90;;;;;;5118018;28;19919;-47
2022/01/24 05:36:04;;;;;;;;;;;0.10;99.90;;;;;;5109251;28;19912;-48
2022/01/24 05:38:30;;;;;;;;;;;0.10;99.90;;;;;;5111132;28;19907;-48
2022/01/24 05:40:56;;;;;;;;;;;0.00;99.90;;;;;;5097805;28;19911;-47
2022/01/24 05:43:21;;;;;;;;;;;0.10;99.90;;;;;;5116057;28;19919;-46
2022/01/24 05:45:47;;;;;;;;;;;0.00;99.90;;;;;;5102993;28;20002;-47
2022/01/24 05:48:13;;;;;;;;;;;0.00;99.90;;;;;;5096229;28;19912;-48
2022/01/24 05:50:38;;;;;;;;;;;0.10;99.90;;;;;;5101629;28;19912;-48
2022/01/24 05:53:04;;;;;;;;;;;0.10;99.90;;;;;;5096847;28;19908;-44
2022/01/24 05:55:29;;;;;;;;;;;0.10;99.90;;;;;;5106959;28;20007;-45
2022/01/24 05:57:55;;;;;;;;;;;0.00;99.90;;;;;;5105935;28;19944;-44
2022/01/24 06:00:21;;;;;;;;;;;0.00;99.90;;;;;;5109910;28;19987;-48
2022/01/24 06:02:47;;;;;;;;;;;0.00;99.90;;;;;;5079696;28;20396;-46
2022/01/24 06:05:12;;;;;;;;;;;0.00;99.90;;;;;;5110691;28;19962;-48
2022/01/24 06:07:38;;;;;;;;;;;0.00;99.90;;;;;;5113215;28;20345;-50
2022/01/24 06:10:04;;;;;;;;;;;-0.10;99.90;;;;;;5101101;28;19919;-47
2022/01/24 06:12:30;;;;;;;;;;;-0.10;99.90;;;;;;5112506;28;19916;-46
2022/01/24 06:14:56;;;;;;;;;;;0.00;99.90;;;;;;5114694;28;19908;-48
2022/01/24 06:17:21;;;;;;;;;;;0.00;99.90;;;;;;5115472;28;19951;-44
2022/01/24 06:19:47;;;;;;;;;;;-0.10;99.90;;;;;;5115901;28;19908;-44
2022/01/24 06:22:12;;;;;;;;;;;0.00;99.90;;;;;;5116006;28;20329;-44
2022/01/24 06:24:38;;;;;;;;;;;-0.10;99.90;;;;;;5115636;28;19924;-48
2022/01/24 06:27:04;;;;;;;;;;;-0.10;99.90;;;;;;5097932;28;19908;-45
2022/01/24 06:29:29;;;;;;;;;;;-0.10;99.90;;;;;;5115758;28;19908;-44
2022/01/24 06:31:55;;;;;;;;;;;-0.20;99.90;;;;;;5115342;28;19915;-47
2022/01/24 06:34:20;;;;;;;;;;;-0.10;99.90;;;;;;5115837;28;19922;-46
2022/01/24 06:36:46;;;;;;;;;;;-0.10;99.90;;;;;;5097009;28;19915;-47
2022/01/24 06:39:14;;;;;;;;;;;-0.10;99.90;;;;;;5115097;28;19926;-45
2022/01/24 06:41:41;;;;;;;;;;;0.10;99.90;;;;;;5115301;28;19908;-48
2022/01/24 06:44:07;;;;;;;;;;;0.00;99.90;;;;;;5114831;28;20277;-46
2022/01/24 06:46:32;;;;;;;;;;;0.10;99.90;;;;;;5114300;28;19912;-45
2022/01/24 06:48:58;;;;;;;;;;;0.00;99.90;;;;;;5114603;28;19908;-45
2022/01/24 06:51:23;;;;;;;;;;;0.00;99.90;;;;;;5115660;28;19991;-47
2022/01/24 06:53:49;;;;;;;;;;;0.00;99.90;;;;;;5115165;28;20361;-45
2022/01/24 06:56:15;;;;;;;;;;;0.00;99.90;;;;;;5115135;28;19997;-47
2022/01/24 06:58:41;;;;;;;;;;;0.10;99.90;;;;;;5115410;28;20023;-45
2022/01/24 07:01:06;;;;;;;;;;;0.10;99.90;;;;;;5115115;28;20310;-44
2022/01/24 07:03:32;;;;;;;;;;;0.10;99.90;;;;;;5096334;28;20052;-50
2022/01/24 07:05:58;;;;;;;;;;;0.10;99.90;;;;;;5114882;28;19912;-49
2022/01/24 07:08:23;;;;;;;;;;;0.20;99.90;;;;;;5114632;28;19908;-50
2022/01/24 07:10:49;;;;;;;;;;;0.30;99.90;;;;;;5114704;28;19911;-48
2022/01/24 07:13:14;;;;;;;;;;;0.30;99.90;;;;;;5114775;28;20308;-47
2022/01/24 07:15:50;;;;;;;;;;;0.30;99.90;;;;;;5115000;28;19954;-49
2022/01/24 07:20:54;;;;;;;;;;;0.40;99.90;;;;;;5114922;28;19908;-44
2022/01/24 07:23:19;;;;;;;;;;;0.50;99.90;;;;;;5114885;28;20323;-48
2022/01/24 07:25:45;;;;;;;;;;;0.70;99.90;;;;;;5114610;28;19963;-47
2022/01/24 07:28:10;;;;;;;;;;;0.70;99.90;;;;;;5114679;28;19992;-48
2022/01/24 07:30:36;;;;;;;;;;;0.80;99.90;;;;;;5114512;28;20020;-47
2022/01/24 07:33:02;;;;;;;;;;;0.90;99.90;;;;;;5114416;28;19907;-48
2022/01/24 07:35:27;;;;;;;;;;;0.90;99.90;;;;;;5114342;28;19953;-45
2022/01/24 07:37:53;;;;;;;;;;;0.90;99.90;;;;;;5114014;28;19953;-46
2022/01/24 07:40:20;;;;;;;;;;;1.00;99.90;;;;;;5113679;28;20414;-46
2022/01/24 07:45:18;;;;;;;;;;;1.10;99.90;;;;;;5114376;28;19922;-46
2022/01/24 07:47:46;;;;;;;;;;;1.10;99.90;;;;;;5113864;28;19908;-45
2022/01/24 07:50:12;;;;;;;;;;;1.20;99.90;;;;;;5095637;28;20003;-49
2022/01/24 07:52:38;;;;;;;;;;;1.20;99.90;;;;;;5114327;28;19915;-46
2022/01/24 07:55:04;;;;;;;;;;;1.10;99.90;;;;;;5114225;28;19908;-48
2022/01/24 07:57:29;;;;;;;;;;;1.20;99.90;;;;;;5114118;28;19908;-46
2022/01/24 07:59:55;;;;;;;;;;;1.20;99.90;;;;;;5113674;28;20060;-47
2022/01/24 08:02:20;;;;;;;;;;;1.30;99.90;;;;;;5114112;28;20008;-46
2022/01/24 08:04:46;;;;;;;;;;;1.30;99.90;;;;;;5114204;28;19926;-45
2022/01/24 08:07:11;;;;;;;;;;;1.40;99.90;;;;;;5113764;28;19918;-45
2022/01/24 08:09:37;;;;;;;;;;;1.30;99.90;;;;;;5114024;28;19998;-46
2022/01/24 08:12:02;;;;;;;;;;;1.40;99.90;;;;;;5114008;28;20285;-49
2022/01/24 08:14:28;;;;;;;;;;;1.50;99.90;;;;;;5114042;28;19912;-45
2022/01/24 08:16:54;;;;;;;;;;;1.60;99.90;;;;;;5095765;28;19907;-48
2022/01/24 08:19:19;;;;;;;;;;;1.80;99.90;;;;;;5113726;28;19907;-46
2022/01/24 08:21:45;;;;;;;;;;;1.70;99.90;;;;;;5113723;28;19915;-49
2022/01/24 08:24:11;;;;;;;;;;;1.90;99.90;;;;;;5113812;28;20142;-45
2022/01/24 08:26:37;;;;;;;;;;;1.90;99.90;;;;;;5113942;28;20357;-47
2022/01/24 08:29:02;;;;;;;;;;;2.10;99.90;;;;;;5113629;28;19952;-46
2022/01/24 08:31:28;;;;;;;;;;;2.10;99.90;;;;;;5113813;28;19908;-46
2022/01/24 08:33:54;;;;;;;;;;;2.10;99.90;;;;;;5113702;28;19968;-48
2022/01/24 08:36:19;;;;;;;;;;;2.20;99.90;;;;;;5095508;28;19908;-45
2022/01/24 08:38:47;;;;;;;;;;;2.30;99.90;;;;;;5113853;28;19911;-48
2022/01/24 08:41:20;;;;;;;;;;;2.40;99.90;;;;;;5113686;28;20015;-44
2022/01/24 08:46:15;;;;;;;;;;;2.40;99.90;;;;;;5113734;28;20008;-46
2022/01/24 08:48:42;;;;;;;;;;;2.40;99.90;;;;;;5113445;28;19917;-48
2022/01/24 08:51:08;;;;;;;;;;;2.30;99.90;;;;;;5113905;28;20270;-47
2022/01/24 08:53:34;;;;;;;;;;;2.60;99.90;;;;;;5113557;28;20003;-49
2022/01/24 08:56:01;;;;;;;;;;;2.70;99.90;;;;;;5113817;28;19908;-46
2022/01/24 08:58:27;;;;;;;;;;;2.70;99.90;;;;;;5113636;28;20338;-45
2022/01/24 09:00:52;;;;;;;;;;;2.80;99.90;;;;;;5113740;28;19908;-46
2022/01/24 09:03:18;;;;;;;;;;;2.80;99.90;;;;;;5113655;28;20384;-47
2022/01/24 09:05:45;;;;;;;;;;;2.80;99.90;;;;;;5113741;28;19912;-45
2022/01/24 09:08:10;;;;;;;;;;;2.80;99.90;;;;;;5113474;28;19907;-46
2022/01/24 09:10:38;;;;;;;;;;;2.90;99.90;;;;;;5114191;28;20404;-48
2022/01/24 09:13:04;;;;;;;;;;;2.90;99.90;;;;;;5117388;28;19908;-48
2022/01/24 09:15:29;;;;;;;;;;;3.00;99.90;;;;;;5117416;28;19908;-51
2022/01/24 09:17:55;;;;;;;;;;;3.00;99.90;;;;;;5099315;28;19995;-45
2022/01/24 09:20:20;;;;;;;;;;;3.10;99.90;;;;;;5116965;28;20114;-46
2022/01/24 09:22:47;;;;;;;;;;;3.20;99.90;;;;;;5116953;28;19934;-46
2022/01/24 09:25:13;;;;;;;;;;;3.10;99.90;;;;;;5116851;28;20354;-45
2022/01/24 09:27:39;;;;;;;;;;;3.10;99.90;;;;;;5117100;28;19911;-49
2022/01/24 09:30:06;;;;;;;;;;;3.20;99.90;;;;;;5116939;28;20354;-46
2022/01/24 09:32:31;;;;;;;;;;;3.30;99.90;;;;;;5116915;28;19912;-49
2022/01/24 09:34:57;;;;;;;;;;;3.40;99.90;;;;;;5117253;28;20376;-47
2022/01/24 09:37:22;;;;;;;;;;;3.40;99.90;;;;;;5116555;28;19908;-45
2022/01/24 09:39:48;;;;;;;;;;;3.50;99.90;;;;;;5116743;28;19929;-47
2022/01/24 09:42:14;;;;;;;;;;;3.50;99.90;;;;;;5117437;28;20385;-48
2022/01/24 09:44:39;;;;;;;;;;;3.40;99.90;;;;;;5116904;28;19915;-45
2022/01/24 09:47:05;;;;;;;;;;;3.40;99.90;;;;;;5116933;28;19911;-45
2022/01/24 09:49:30;;;;;;;;;;;3.40;99.90;;;;;;5116856;28;19908;-50
2022/01/24 09:51:56;;;;;;;;;;;3.10;99.90;;;;;;5117211;28;20007;-44
2022/01/24 09:54:21;;;;;;;;;;;3.10;99.90;;;;;;5116986;28;19957;-48
2022/01/24 09:56:47;;;;;;;;;;;3.10;99.90;;;;;;5116809;28;19907;-44
2022/01/24 09:59:12;;;;;;;;;;;3.20;99.90;;;;;;5116149;28;19907;-48
2022/01/24 10:01:38;;;;;;;;;;;3.20;99.90;;;;;;5116595;28;20006;-44
2022/01/24 10:04:09;;;;;;;;;;;3.30;99.90;;;;;;5098322;28;19912;-48
2022/01/24 10:06:53;;;;;;;;;;;3.40;99.90;;;;;;5116156;28;19918;-50
2022/01/24 10:09:25;;;;;;;;;;;3.60;99.90;;;;;;5098223;28;20353;-46
2022/01/24 10:12:05;;;;;;;;;;;3.40;99.90;;;;;;5116503;28;19999;-50
2022/01/24 10:17:22;;;;;;;;;;;2.90;99.90;;;;;;5116097;28;19918;-44
2022/01/24 10:19:49;;;;;;;;;;;3.10;99.90;;;;;;5116102;28;19908;-49
2022/01/24 10:22:15;;;;;;;;;;;3.10;99.90;;;;;;5115841;28;20450;-47
2022/01/24 10:24:49;;;;;;;;;;;3.00;99.90;;;;;;5116023;28;19988;-47
2022/01/24 10:27:19;;;;;;;;;;;3.10;99.90;;;;;;5115808;28;19908;-46
2022/01/24 10:29:57;;;;;;;;;;;3.20;99.90;;;;;;5116077;28;19960;-46
2022/01/24 10:32:27;;;;;;;;;;;3.30;99.90;;;;;;5115692;28;20052;-44
2022/01/24 10:34:53;;;;;;;;;;;3.30;99.90;;;;;;5115669;28;19969;-47
2022/01/24 10:37:22;;;;;;;;;;;3.40;99.90;;;;;;5115716;28;20353;-47
2022/01/24 10:40:08;;;;;;;;;;;3.50;99.90;;;;;;5097483;28;19908;-47
2022/01/24 10:42:53;;;;;;;;;;;3.60;99.90;;;;;;5115667;28;19922;-44
2022/01/24 10:45:21;;;;;;;;;;;3.50;99.90;;;;;;5115539;28;19928;-47
2022/01/24 10:47:49;;;;;;;;;;;3.70;99.90;;;;;;5115556;28;19912;-46
2022/01/24 10:50:25;;;;;;;;;;;3.60;99.90;;;;;;5115512;28;19962;-45
2022/01/24 10:52:52;;;;;;;;;;;3.80;99.90;;;;;;5115106;28;20105;-45
2022/01/24 10:55:24;;;;;;;;;;;4.20;99.90;;;;;;5115545;28;19963;-47
2022/01/24 10:57:52;;;;;;;;;;;4.10;99.90;;;;;;5115452;28;19908;-48
2022/01/24 11:00:24;;;;;;;;;;;4.40;99.90;;;;;;5115381;28;19943;-51
2022/01/24 11:02:52;;;;;;;;;;;4.80;99.90;;;;;;5115321;28;19947;-46
2022/01/24 11:05:21;;;;;;;;;;;4.90;99.90;;;;;;5096809;28;19962;-45
2022/01/24 11:07:49;;;;;;;;;;;5.20;99.90;;;;;;5114828;28;19965;-47
2022/01/24 11:10:14;;;;;;;;;;;5.60;99.90;;;;;;5115286;28;19908;-49
2022/01/24 11:12:40;;;;;;;;;;;6.00;99.90;;;;;;5115339;28;19972;-46
2022/01/24 11:15:06;;;;;;;;;;;6.30;99.90;;;;;;5114743;28;19908;-45
2022/01/24 11:17:33;;;;;;;;;;;6.60;99.90;;;;;;5114698;28;19995;-48
2022/01/24 11:20:02;;;;;;;;;;;6.70;99.90;;;;;;5114374;28;20235;-48
2022/01/24 11:22:30;;;;;;;;;;;6.80;99.90;;;;;;5114962;28;19908;-48
2022/01/24 11:24:59;;;;;;;;;;;7.00;99.90;;;;;;5114682;28;19920;-45
2022/01/24 11:27:26;;;;;;;;;;;7.20;99.90;;;;;;5114445;28;19908;-49
2022/01/24 11:29:53;;;;;;;;;;;7.30;99.90;;;;;;5114195;28;19965;-47
2022/01/24 11:32:27;;;;;;;;;;;7.30;99.90;;;;;;5114261;28;19908;-47
2022/01/24 11:34:53;;;;;;;;;;;7.70;99.90;;;;;;5113875;28;19908;-46
2022/01/24 11:37:34;;;;;;;;;;;5.60;99.90;;;;;;5114493;28;20002;-48
2022/01/24 11:40:01;;;;;;;;;;;5.60;99.90;;;;;;5114016;28;20370;-46
2022/01/24 11:42:31;;;;;;;;;;;5.10;99.90;;;;;;5114231;28;19907;-43
2022/01/24 11:45:03;;;;;;;;;;;5.10;99.90;;;;;;5114558;28;19911;-47
2022/01/24 11:47:29;;;;;;;;;;;5.10;99.90;;;;;;5114430;28;20304;-48
2022/01/24 11:49:54;;;;;;;;;;;4.90;99.90;;;;;;5114213;28;19908;-48
2022/01/24 11:52:27;;;;;;;;;;;5.10;99.90;;;;;;5114353;28;19908;-44
2022/01/24 11:55:06;;;;;;;;;;;5.00;99.90;;;;;;5113709;28;19908;-46
2022/01/24 11:57:34;;;;;;;;;;;4.90;99.90;;;;;;5113710;28;19912;-44
2022/01/24 12:00:06;;;;;;;;;;;5.00;99.90;;;;;;5095638;28;19908;-44
2022/01/24 12:02:44;;;;;;;;;;;5.00;99.90;;;;;;5113578;28;19911;-46
2022/01/24 12:05:11;;;;;;;;;;;5.50;99.90;;;;;;5114071;28;19916;-47
2022/01/24 12:07:41;;;;;;;;;;;5.40;99.90;;;;;;5114054;28;20409;-46
2022/01/24 12:10:38;;;;;;;;;;;5.10;99.90;;;;;;5113939;28;20273;-44
2022/01/24 12:13:04;;;;;;;;;;;5.10;99.90;;;;;;5114154;28;19908;-48
2022/01/24 12:15:36;;;;;;;;;;;5.40;99.90;;;;;;5095634;28;19915;-45
2022/01/24 12:18:02;;;;;;;;;;;5.30;99.90;;;;;;5113761;28;20251;-45
2022/01/24 12:20:30;;;;;;;;;;;5.10;99.90;;;;;;5114145;28;20037;-47
2022/01/24 12:22:59;;;;;;;;;;;4.80;99.90;;;;;;5113399;28;19935;-46
2022/01/24 12:25:44;;;;;;;;;;;4.90;99.90;;;;;;5113451;28;19946;-47
2022/01/24 12:28:16;;;;;;;;;;;5.20;99.90;;;;;;5113336;28;19908;-45
2022/01/24 12:30:57;;;;;;;;;;;5.40;99.90;;;;;;5113355;28;20034;-47
2022/01/24 12:33:28;;;;;;;;;;;5.60;99.90;;;;;;5113290;28;19907;-44
2022/01/24 12:35:53;;;;;;;;;;;5.60;99.90;;;;;;5113412;28;20003;-46
2022/01/24 12:38:19;;;;;;;;;;;5.40;99.90;;;;;;5113040;28;19951;-47
2022/01/24 12:40:45;;;;;;;;;;;5.40;99.90;;;;;;5113060;28;20366;-46
2022/01/24 12:43:19;;;;;;;;;;;5.40;99.90;;;;;;5113581;28;20015;-44
2022/01/24 12:48:29;;;;;;;;;;;5.30;99.90;;;;;;5117586;28;19986;-45
2022/01/24 12:50:55;;;;;;;;;;;5.30;99.90;;;;;;5117782;28;20007;-45
2022/01/24 12:53:21;;;;;;;;;;;5.30;99.90;;;;;;5117668;28;19951;-46
2022/01/24 12:55:58;;;;;;;;;;;5.20;99.90;;;;;;5117651;28;19908;-48
2022/01/24 12:58:43;;;;;;;;;;;5.30;99.90;;;;;;5117132;28;19926;-46
2022/01/24 13:01:28;;;;;;;;;;;5.50;99.90;;;;;;5117060;28;19908;-46
2022/01/24 13:03:58;;;;;;;;;;;5.50;99.90;;;;;;5117555;28;19919;-46
2022/01/24 13:06:25;;;;;;;;;;;5.70;99.90;;;;;;5099074;28;19990;-46
2022/01/24 13:08:58;;;;;;;;;;;5.40;99.90;;;;;;5117530;28;19907;-48
2022/01/24 13:11:24;;;;;;;;;;;5.50;99.90;;;;;;5117280;28;19908;-49
2022/01/24 13:14:12;;;;;;;;;;;5.60;99.90;;;;;;5116887;28;19911;-45
2022/01/24 13:22:20;;;;;;;;;;;5.70;99.90;;;;;;5117075;28;19915;-43
2022/01/24 13:25:06;;;;;;;;;;;5.90;99.90;;;;;;5116800;28;20435;-48
2022/01/24 13:27:37;;;;;;;;;;;5.90;99.90;;;;;;5098980;28;19911;-45
2022/01/24 13:30:04;;;;;;;;;;;5.40;99.90;;;;;;5116867;28;19995;-49
2022/01/24 13:32:47;;;;;;;;;;;5.70;99.90;;;;;;5116991;28;19993;-45
2022/01/24 13:35:20;;;;;;;;;;;5.60;99.90;;;;;;5116593;28;19912;-46
2022/01/24 13:37:46;;;;;;;;;;;6.00;99.90;;;;;;5116686;28;19998;-45
2022/01/24 13:40:12;;;;;;;;;;;6.10;99.90;;;;;;5116901;28;19912;-46
2022/01/24 13:42:38;;;;;;;;;;;5.80;99.90;;;;;;5098489;28;19930;-44
2022/01/24 13:45:05;;;;;;;;;;;5.70;99.90;;;;;;5116104;28;20015;-45
2022/01/24 13:47:30;;;;;;;;;;;5.70;99.90;;;;;;5098466;28;20246;-45
2022/01/24 13:49:56;;;;;;;;;;;5.70;99.90;;;;;;5116199;28;19919;-45
2022/01/24 13:52:24;;;;;;;;;;;5.70;99.90;;;;;;5116326;28;19912;-45
2022/01/24 13:54:50;;;;;;;;;;;5.50;99.90;;;;;;5116006;28;19908;-47
2022/01/24 13:57:17;;;;;;;;;;;5.50;99.90;;;;;;5115630;28;19915;-48
2022/01/24 13:59:43;;;;;;;;;;;5.60;99.90;;;;;;5098261;28;19954;-47
2022/01/24 14:02:22;;;;;;;;;;;5.70;99.90;;;;;;5116128;28;20086;-47
2022/01/24 14:04:53;;;;;;;;;;;5.40;99.90;;;;;;5115980;28;20324;-46
2022/01/24 14:07:21;;;;;;;;;;;5.10;99.90;;;;;;5116217;28;19915;-45
2022/01/24 14:09:49;;;;;;;;;;;5.20;99.90;;;;;;5115915;28;20388;-47
2022/01/24 14:12:16;;;;;;;;;;;5.20;99.90;;;;;;5116214;28;20012;-45
2022/01/24 14:14:47;;;;;;;;;;;5.10;99.90;;;;;;5115890;28;19911;-46
2022/01/24 14:19:40;;;;;;;;;;;5.00;99.90;;;;;;5115561;28;19908;-50
2022/01/24 14:22:07;;;;;;;;;;;5.10;99.90;;;;;;5115926;28;19931;-44
2022/01/24 14:24:41;;;;;;;;;;;5.10;99.90;;;;;;5115103;28;20403;-46
2022/01/24 14:27:07;;;;;;;;;;;4.90;99.90;;;;;;5115868;28;19908;-47
2022/01/24 14:29:37;;;;;;;;;;;4.90;99.90;;;;;;5116018;28;20262;-49
2022/01/24 14:32:10;;;;;;;;;;;4.90;99.90;;;;;;5115924;28;19975;-50
2022/01/24 14:34:36;;;;;;;;;;;4.80;99.90;;;;;;5115344;28;19908;-46
2022/01/24 14:37:05;;;;;;;;;;;4.80;99.90;;;;;;5115240;28;19960;-46
2022/01/24 14:39:31;;;;;;;;;;;4.70;99.90;;;;;;5097190;28;19919;-45
2022/01/24 14:41:57;;;;;;;;;;;4.80;99.90;;;;;;5115329;28;19908;-48
2022/01/24 14:47:07;;;;;;;;;;;4.80;99.90;;;;;;5115487;28;19962;-49
2022/01/24 14:49:35;;;;;;;;;;;4.80;99.90;;;;;;5114851;28;19908;-50
2022/01/24 14:52:04;;;;;;;;;;;4.90;99.90;;;;;;5115667;28;19947;-47
2022/01/24 14:54:31;;;;;;;;;;;4.80;99.90;;;;;;5115372;28;20315;-47
2022/01/24 14:56:59;;;;;;;;;;;4.80;99.90;;;;;;5115237;28;19908;-45
2022/01/24 14:59:25;;;;;;;;;;;4.90;99.90;;;;;;5096862;28;19908;-45
2022/01/24 15:01:51;;;;;;;;;;;5.00;99.90;;;;;;5114837;28;19914;-47
2022/01/24 15:04:17;;;;;;;;;;;4.80;99.90;;;;;;5095001;28;20308;-47
2022/01/24 15:06:44;;;;;;;;;;;4.70;99.90;;;;;;5111713;28;20006;-47
2022/01/24 15:09:15;;;;;;;;;;;4.60;99.90;;;;;;5104754;28;20290;-48
2022/01/24 15:11:41;;;;;;;;;;;4.40;99.90;;;;;;5110958;28;19953;-45
2022/01/24 15:14:19;;;;;;;;;;;4.40;99.90;;;;;;5105436;28;19912;-47
2022/01/24 15:27:42;;;;;;;;;;;5.20;99.90;;;;;;5094085;28;19935;-45
2022/01/24 15:30:09;;;;;;;;;;;5.00;99.90;;;;;;5098916;28;19916;-45
2022/01/24 15:32:34;;;;;;;;;;;4.80;99.90;;;;;;5109695;28;20056;-48
2022/01/24 15:35:00;;;;;;;;;;;4.50;99.90;;;;;;5098138;28;20381;-45
2022/01/24 15:37:25;;;;;;;;;;;4.30;99.90;;;;;;5113975;28;19908;-47
2022/01/24 15:39:53;;;;;;;;;;;4.20;99.90;;;;;;5109269;28;19921;-47
2022/01/24 15:42:32;;;;;;;;;;;4.10;99.90;;;;;;5103620;28;20392;-48
2022/01/24 15:47:33;;;;;;;;;;;3.90;99.90;;;;;;5096034;28;19916;-47
2022/01/24 15:49:59;;;;;;;;;;;3.80;99.90;;;;;;5074147;28;19912;-48
2022/01/24 15:52:25;;;;;;;;;;;3.60;99.90;;;;;;5091935;28;19908;-46
2022/01/24 15:54:53;;;;;;;;;;;3.60;99.90;;;;;;5091660;28;20004;-46
2022/01/24 16:00:06;;;;;;;;;;;3.40;99.90;;;;;;5092730;28;19961;-48
2022/01/24 16:02:32;;;;;;;;;;;3.20;99.90;;;;;;5074502;28;19919;-47
2022/01/24 16:04:58;;;;;;;;;;;3.20;99.90;;;;;;5092883;28;19912;-46
2022/01/24 16:07:24;;;;;;;;;;;3.10;99.90;;;;;;5093954;28;19912;-47
2022/01/24 16:09:49;;;;;;;;;;;3.00;99.90;;;;;;5077265;28;19912;-46
2022/01/24 16:12:15;;;;;;;;;;;2.90;99.90;;;;;;5098267;28;19919;-45
2022/01/24 16:14:40;;;;;;;;;;;2.80;99.90;;;;;;5102932;28;19969;-47
2022/01/24 16:17:06;;;;;;;;;;;2.70;99.90;;;;;;5092316;28;19908;-47
2022/01/24 16:19:36;;;;;;;;;;;2.70;99.90;;;;;;5105341;28;20345;-45
2022/01/24 16:22:16;;;;;;;;;;;2.70;99.90;;;;;;5109876;28;19929;-49
2022/01/24 16:27:11;;;;;;;;;;;2.60;99.90;;;;;;5101933;28;19922;-48
2022/01/24 16:29:37;;;;;;;;;;;2.50;99.90;;;;;;5099771;28;20331;-48
2022/01/24 16:32:04;;;;;;;;;;;2.60;99.90;;;;;;5078612;28;19947;-50
2022/01/24 16:34:29;;;;;;;;;;;2.60;99.90;;;;;;5095887;28;20366;-48
2022/01/24 16:36:56;;;;;;;;;;;2.70;99.90;;;;;;5106353;28;19911;-46
2022/01/24 16:39:22;;;;;;;;;;;2.70;99.90;;;;;;5107835;28;20322;-49
2022/01/24 16:42:04;;;;;;;;;;;2.70;99.90;;;;;;5093226;28;19919;-45
2022/01/24 16:47:13;;;;;;;;;;;2.80;99.90;;;;;;5098279;28;20035;-45
2022/01/24 16:49:42;;;;;;;;;;;2.90;99.90;;;;;;5093495;28;20054;-49
2022/01/24 16:52:09;;;;;;;;;;;2.90;99.90;;;;;;5105583;28;19955;-45
2022/01/24 16:54:35;;;;;;;;;;;2.90;99.90;;;;;;5111447;28;19927;-45
2022/01/24 16:57:02;;;;;;;;;;;2.90;99.90;;;;;;5103642;28;19916;-51
2022/01/24 16:59:30;;;;;;;;;;;3.00;99.90;;;;;;5096233;28;19913;-49